createdAt,value
2022-08-17T00:00:34.555Z,24.60
2022-08-17T00:03:13.677Z,24.71
2022-08-17T00:05:57.597Z,24.81
2022-08-17T00:08:32.170Z,24.91
2022-08-17T00:11:00.180Z,24.98
2022-08-17T00:13:41.936Z,25.03
2022-08-17T00:16:21.094Z,24.80
2022-08-17T00:19:11.481Z,24.31
2022-08-17T00:22:32.591Z,24.12
2022-08-17T00:24:31.887Z,23.85
2022-08-17T00:26:59.780Z,23.70
2022-08-17T00:29:27.622Z,23.69
2022-08-17T00:31:55.608Z,23.77
2022-08-17T00:34:25.323Z,23.88
2022-08-17T00:36:55.711Z,23.96
2022-08-17T00:39:23.666Z,24.00
2022-08-17T00:41:51.512Z,24.11
2022-08-17T00:44:19.631Z,24.17
2022-08-17T00:46:48.103Z,24.21
2022-08-17T00:49:19.194Z,24.27
2022-08-17T00:51:56.701Z,24.30
2022-08-17T00:54:28.887Z,24.29
2022-08-17T00:57:07.413Z,24.24
2022-08-17T00:59:39.458Z,24.09
2022-08-17T01:02:09.188Z,23.91
2022-08-17T01:04:37.023Z,23.84
2022-08-17T01:07:04.976Z,23.77
2022-08-17T01:09:32.880Z,23.70
2022-08-17T01:12:00.745Z,23.60
2022-08-17T01:14:28.608Z,23.51
2022-08-17T01:16:56.512Z,23.47
2022-08-17T01:19:31.175Z,23.54
2022-08-17T01:22:18.966Z,23.65
2022-08-17T01:24:52.042Z,23.71
2022-08-17T01:27:21.097Z,23.79
2022-08-17T01:29:52.235Z,23.78
2022-08-17T01:32:20.206Z,23.68
2022-08-17T01:34:50.616Z,23.52
2022-08-17T01:37:20.998Z,23.42
2022-08-17T01:39:53.135Z,23.31
2022-08-17T01:42:23.521Z,23.31
2022-08-17T01:44:56.812Z,23.34
2022-08-17T01:47:24.845Z,23.43
2022-08-17T01:49:52.913Z,23.48
2022-08-17T01:52:22.171Z,23.50
2022-08-17T01:54:49.982Z,23.55
2022-08-17T01:57:17.886Z,23.60
2022-08-17T01:59:45.695Z,23.66
2022-08-17T02:02:30.822Z,23.71
2022-08-17T02:04:59.859Z,23.71
2022-08-17T02:07:28.031Z,23.72
2022-08-17T02:09:56.688Z,23.77
2022-08-17T02:12:39.015Z,23.84
2022-08-17T02:15:08.898Z,23.93
2022-08-17T02:17:36.710Z,24.03
2022-08-17T02:20:05.729Z,24.12
2022-08-17T02:22:33.639Z,24.14
2022-08-17T02:25:02.315Z,24.14
2022-08-17T02:27:30.905Z,24.07
2022-08-17T02:29:58.777Z,23.96
2022-08-17T02:32:27.974Z,23.93
2022-08-17T02:34:58.216Z,23.91
2022-08-17T02:37:27.337Z,23.84
2022-08-17T02:39:57.309Z,23.81
2022-08-17T02:42:31.650Z,23.81
2022-08-17T02:45:01.141Z,23.81
2022-08-17T02:47:29.092Z,23.80
2022-08-17T02:49:57.297Z,23.75
2022-08-17T02:52:43.003Z,23.77
2022-08-17T02:55:18.277Z,23.83
2022-08-17T02:57:46.522Z,23.92
2022-08-17T03:00:21.404Z,24.00
2022-08-17T03:02:49.753Z,24.04
2022-08-17T03:05:20.740Z,24.06
2022-08-17T03:07:48.676Z,24.11
2022-08-17T03:10:17.317Z,24.16
2022-08-17T03:12:45.351Z,24.24
2022-08-17T03:15:26.135Z,24.31
2022-08-17T03:17:55.497Z,24.38
2022-08-17T03:20:24.929Z,24.38
2022-08-17T03:23:01.709Z,24.36
2022-08-17T03:25:34.660Z,24.37
2022-08-17T03:28:03.796Z,24.42
2022-08-17T03:30:31.967Z,24.49
2022-08-17T03:33:02.413Z,24.54
2022-08-17T03:35:32.426Z,24.54
2022-08-17T03:38:01.282Z,24.48
2022-08-17T03:40:55.435Z,24.37
2022-08-17T03:43:18.571Z,24.30
2022-08-17T03:46:04.735Z,24.33
2022-08-17T03:48:52.333Z,24.39
2022-08-17T03:51:40.971Z,24.41
2022-08-17T03:54:27.802Z,24.42
2022-08-17T03:57:10.098Z,24.36
2022-08-17T03:59:38.380Z,24.27
2022-08-17T04:02:19.743Z,24.17
2022-08-17T04:04:51.195Z,24.17
2022-08-17T04:07:24.726Z,24.25
2022-08-17T04:09:52.627Z,24.26
2022-08-17T04:12:22.112Z,24.20
2022-08-17T04:14:52.977Z,24.17
2022-08-17T04:17:27.948Z,24.17
2022-08-17T04:19:56.411Z,24.19
2022-08-17T04:22:32.024Z,24.23
2022-08-17T04:25:30.441Z,24.24
2022-08-17T04:27:58.738Z,24.22
2022-08-17T04:30:28.931Z,24.27
2022-08-17T04:33:10.800Z,24.35
2022-08-17T04:35:42.465Z,24.40
2022-08-17T04:38:15.112Z,24.43
2022-08-17T04:41:01.739Z,24.46
2022-08-17T04:43:31.105Z,24.49
2022-08-17T04:46:05.184Z,24.54
2022-08-17T04:48:42.750Z,24.59
2022-08-17T04:51:17.912Z,24.70
2022-08-17T04:53:54.719Z,24.85
2022-08-17T04:56:26.033Z,24.95
2022-08-17T04:59:00.881Z,25.03
2022-08-17T05:01:31.784Z,25.02
2022-08-17T05:04:32.125Z,24.94
2022-08-17T05:06:52.369Z,24.91
2022-08-17T05:09:20.429Z,24.95
2022-08-17T05:11:48.766Z,25.01
2022-08-17T05:14:16.733Z,25.05
2022-08-17T05:16:45.894Z,24.98
2022-08-17T05:19:13.769Z,24.96
2022-08-17T05:21:41.865Z,24.91
2022-08-17T05:24:38.599Z,24.94
2022-08-17T05:27:01.390Z,24.94
2022-08-17T05:29:35.340Z,25.06
2022-08-17T05:32:38.495Z,25.21
2022-08-17T05:35:00.876Z,25.36
2022-08-17T05:37:31.805Z,25.50
2022-08-17T05:39:59.885Z,25.60
2022-08-17T05:42:27.825Z,25.58
2022-08-17T05:44:57.942Z,25.62
2022-08-17T05:47:26.336Z,25.70
2022-08-17T05:49:54.336Z,25.83
2022-08-17T05:53:04.320Z,25.86
2022-08-17T05:56:04.030Z,25.92
2022-08-17T05:58:59.330Z,25.97
2022-08-17T06:01:35.410Z,25.97
2022-08-17T06:04:27.274Z,25.89
2022-08-17T06:07:12.773Z,25.74
2022-08-17T06:10:15.177Z,25.83
2022-08-17T06:13:10.686Z,25.66
2022-08-17T06:16:33.231Z,25.58
2022-08-17T06:19:25.201Z,25.46
2022-08-17T06:21:53.980Z,25.53
2022-08-17T06:24:47.784Z,25.48
2022-08-17T06:27:37.016Z,25.69
2022-08-17T06:30:13.062Z,25.85
2022-08-17T06:32:43.703Z,25.80
2022-08-17T06:35:28.840Z,25.98
2022-08-17T06:38:50.644Z,26.12
2022-08-17T06:41:40.678Z,26.23
2022-08-17T06:44:49.719Z,26.40
2022-08-17T06:47:36.763Z,26.51
2022-08-17T06:50:18.511Z,26.68
2022-08-17T06:53:14.234Z,26.73
2022-08-17T06:55:47.340Z,26.66
2022-08-17T06:58:15.813Z,26.69
2022-08-17T07:00:46.263Z,26.91
2022-08-17T07:03:49.937Z,27.06
2022-08-17T07:06:21.116Z,27.12
2022-08-17T07:08:59.294Z,27.29
2022-08-17T07:11:40.058Z,27.38
2022-08-17T07:14:38.602Z,27.48
2022-08-17T07:17:13.430Z,27.87
2022-08-17T07:19:45.675Z,28.72
2022-08-17T07:23:01.286Z,29.72
2022-08-17T07:25:30.706Z,30.82
2022-08-17T07:28:02.521Z,31.61
2022-08-17T07:30:46.930Z,32.25
2022-08-17T07:33:20.283Z,32.91
2022-08-17T07:35:50.222Z,33.36
2022-08-17T07:38:28.379Z,33.52
2022-08-17T07:41:05.606Z,33.11
2022-08-17T07:43:39.477Z,32.05
2022-08-17T07:46:46.314Z,30.70
2022-08-17T07:49:14.352Z,29.64
2022-08-17T07:51:48.062Z,29.69
2022-08-17T07:54:15.950Z,29.38
2022-08-17T07:57:29.893Z,29.36
2022-08-17T08:00:01.351Z,30.36
2022-08-17T08:02:38.306Z,30.97
2022-08-17T08:05:48.736Z,30.53
2022-08-17T08:08:43.141Z,29.58
2022-08-17T08:11:15.478Z,28.76
2022-08-17T08:13:45.673Z,28.25
2022-08-17T08:16:29.319Z,27.71
2022-08-17T08:19:00.931Z,27.18
2022-08-17T08:21:31.299Z,26.95
2022-08-17T08:24:34.970Z,26.70
2022-08-17T08:27:30.905Z,26.53
2022-08-17T08:30:19.378Z,26.56
2022-08-17T08:33:24.276Z,26.50
2022-08-17T08:37:12.748Z,27.26
2022-08-17T08:40:26.690Z,28.12
2022-08-17T08:43:28.979Z,27.93
2022-08-17T08:46:14.968Z,27.82
2022-08-17T08:49:14.992Z,28.10
2022-08-17T08:51:58.040Z,28.51
2022-08-17T08:54:54.917Z,28.56
2022-08-17T08:57:34.072Z,28.75
2022-08-17T09:00:19.288Z,29.08
2022-08-17T09:03:42.580Z,29.46
2022-08-17T09:06:58.585Z,29.68
2022-08-17T09:09:58.689Z,29.33
2022-08-17T09:13:12.139Z,28.81
2022-08-17T09:15:50.840Z,28.18
2022-08-17T09:19:01.292Z,27.86
2022-08-17T09:21:49.299Z,27.52
2022-08-17T09:24:37.437Z,27.54
2022-08-17T09:27:14.065Z,27.62
2022-08-17T09:30:04.158Z,27.73
2022-08-17T09:32:38.468Z,28.39
2022-08-17T09:35:36.944Z,28.56
2022-08-17T09:38:32.387Z,28.30
2022-08-17T09:41:17.137Z,28.25
2022-08-17T09:43:53.727Z,28.54
2022-08-17T09:46:29.842Z,28.76
2022-08-17T09:48:58.644Z,28.74
2022-08-17T09:51:35.388Z,28.84
2022-08-17T09:54:34.857Z,29.18
2022-08-17T09:57:30.788Z,28.53
2022-08-17T10:00:11.425Z,28.14
2022-08-17T10:03:09.931Z,28.19
2022-08-17T10:06:01.725Z,28.32
2022-08-17T10:08:52.655Z,28.48
2022-08-17T10:12:01.410Z,28.79
2022-08-17T10:14:43.779Z,28.50
2022-08-17T10:17:22.328Z,27.97
2022-08-17T10:20:12.835Z,27.67
2022-08-17T10:23:10.342Z,27.24
2022-08-17T10:26:04.524Z,27.31
2022-08-17T10:28:47.886Z,27.62
2022-08-17T10:31:42.954Z,27.83
2022-08-17T10:34:27.164Z,27.83
2022-08-17T10:37:15.037Z,27.75
2022-08-17T10:39:52.957Z,27.65
2022-08-17T10:42:52.308Z,27.58
2022-08-17T10:45:29.651Z,27.77
2022-08-17T10:48:07.399Z,27.76
2022-08-17T10:50:58.732Z,27.57
2022-08-17T10:53:33.709Z,27.64
2022-08-17T10:56:55.561Z,27.88
2022-08-17T10:59:48.756Z,28.44
2022-08-17T11:02:19.540Z,28.55
2022-08-17T11:05:00.249Z,28.44
2022-08-17T11:07:46.289Z,28.46
2022-08-17T11:10:20.349Z,28.53
2022-08-17T11:13:28.191Z,28.22
2022-08-17T11:16:32.819Z,27.91
2022-08-17T11:19:38.509Z,27.69
2022-08-17T11:22:09.041Z,27.55
2022-08-17T11:24:44.101Z,27.65
2022-08-17T11:27:33.806Z,28.13
2022-08-17T11:30:41.130Z,28.44
2022-08-17T11:33:45.028Z,28.91
2022-08-17T11:36:31.986Z,29.42
2022-08-17T11:39:24.201Z,29.80
2022-08-17T11:42:39.892Z,29.72
2022-08-17T11:45:33.264Z,29.14
2022-08-17T11:48:28.401Z,28.89
2022-08-17T11:51:46.999Z,28.49
2022-08-17T11:54:34.351Z,28.46
2022-08-17T11:57:25.732Z,28.46
2022-08-17T12:00:00.068Z,28.46
2022-08-17T12:02:32.517Z,28.46
2022-08-17T12:05:28.237Z,28.70
2022-08-17T12:08:06.385Z,28.71
2022-08-17T12:10:36.640Z,28.47
2022-08-17T12:13:13.315Z,28.34
2022-08-17T12:15:49.811Z,28.54
2022-08-17T12:18:22.933Z,28.76
2022-08-17T12:21:15.723Z,28.90
2022-08-17T12:24:19.488Z,29.21
2022-08-17T12:27:00.200Z,29.38
2022-08-17T12:29:35.555Z,29.42
2022-08-17T12:32:07.223Z,29.23
2022-08-17T12:34:39.938Z,28.84
2022-08-17T12:37:20.049Z,28.60
2022-08-17T12:39:56.394Z,28.73
2022-08-17T12:42:31.774Z,28.48
2022-08-17T12:44:59.621Z,28.50
2022-08-17T12:47:30.078Z,28.72
2022-08-17T12:50:08.463Z,29.03
2022-08-17T12:53:01.669Z,29.33
2022-08-17T12:55:32.634Z,29.32
2022-08-17T12:58:02.191Z,29.20
2022-08-17T13:00:41.083Z,29.03
2022-08-17T13:03:22.425Z,28.47
2022-08-17T13:06:00.757Z,28.03
2022-08-17T13:08:38.219Z,27.70
2022-08-17T13:11:18.433Z,27.35
2022-08-17T13:13:50.977Z,27.10
2022-08-17T13:16:27.633Z,27.06
2022-08-17T13:19:16.648Z,27.25
2022-08-17T13:21:52.567Z,27.39
2022-08-17T13:24:24.648Z,27.47
2022-08-17T13:26:59.257Z,27.62
2022-08-17T13:29:53.840Z,27.84
2022-08-17T13:32:44.137Z,28.05
2022-08-17T13:35:40.034Z,27.96
2022-08-17T13:38:16.194Z,27.93
2022-08-17T13:40:52.022Z,27.94
2022-08-17T13:43:45.796Z,27.93
2022-08-17T13:46:20.426Z,28.00
2022-08-17T13:49:04.020Z,28.12
2022-08-17T13:51:41.775Z,28.23
2022-08-17T13:54:26.327Z,28.23
2022-08-17T13:56:58.160Z,28.12
2022-08-17T13:59:54.616Z,28.08
2022-08-17T14:02:25.961Z,28.06
2022-08-17T14:04:56.584Z,27.98
2022-08-17T14:07:36.602Z,27.84
2022-08-17T14:10:14.387Z,27.85
2022-08-17T14:12:43.129Z,27.97
2022-08-17T14:15:13.719Z,28.00
2022-08-17T14:17:42.054Z,27.83
2022-08-17T14:20:12.317Z,27.68
2022-08-17T14:22:44.362Z,27.51
2022-08-17T14:25:14.348Z,27.35
2022-08-17T14:27:53.044Z,27.20
2022-08-17T14:30:24.690Z,27.06
2022-08-17T14:32:52.891Z,26.88
2022-08-17T14:35:22.944Z,26.70
2022-08-17T14:37:52.332Z,26.65
2022-08-17T14:40:21.028Z,26.61
2022-08-17T14:42:50.037Z,26.49
2022-08-17T14:45:32.892Z,26.48
2022-08-17T14:48:04.509Z,26.42
2022-08-17T14:50:35.391Z,26.44
2022-08-17T14:53:06.343Z,26.52
2022-08-17T14:55:34.831Z,26.60
2022-08-17T14:58:04.171Z,26.75
2022-08-17T15:00:32.921Z,26.92
2022-08-17T15:03:01.395Z,27.11
2022-08-17T15:05:33.671Z,27.35
2022-08-17T15:08:02.249Z,27.57
2022-08-17T15:10:30.825Z,27.65
2022-08-17T15:12:58.933Z,27.38
2022-08-17T15:15:27.041Z,27.12
2022-08-17T15:17:55.129Z,26.97
2022-08-17T15:20:29.959Z,26.79
2022-08-17T15:22:59.359Z,26.59
2022-08-17T15:25:29.700Z,26.41
2022-08-17T15:27:58.258Z,26.20
2022-08-17T15:30:26.763Z,26.11
2022-08-17T15:32:55.667Z,26.01
2022-08-17T15:35:28.077Z,25.96
2022-08-17T15:38:09.743Z,25.90
2022-08-17T15:40:46.212Z,26.16
2022-08-17T15:43:24.840Z,27.06
2022-08-17T15:46:14.708Z,27.76
2022-08-17T15:48:43.870Z,27.51
2022-08-17T15:51:24.891Z,27.16
2022-08-17T15:54:19.354Z,26.89
2022-08-17T15:56:50.929Z,26.72
2022-08-17T15:59:19.589Z,26.64
2022-08-17T16:03:13.819Z,26.53
2022-08-17T16:04:35.569Z,26.43
2022-08-17T16:07:07.079Z,26.33
2022-08-17T16:09:35.102Z,26.28
2022-08-17T16:12:11.467Z,26.26
2022-08-17T16:14:39.293Z,26.22
2022-08-17T16:17:15.587Z,26.16
2022-08-17T16:19:55.947Z,26.12
2022-08-17T16:22:41.974Z,26.03
2022-08-17T16:25:19.126Z,25.87
2022-08-17T16:27:49.288Z,25.71
2022-08-17T16:30:18.111Z,25.69
2022-08-17T16:32:47.981Z,26.27
2022-08-17T16:35:18.676Z,26.89
2022-08-17T16:37:46.988Z,26.81
2022-08-17T16:40:18.597Z,26.38
2022-08-17T16:42:48.530Z,26.04
2022-08-17T16:45:25.407Z,25.77
2022-08-17T16:47:58.096Z,25.83
2022-08-17T16:50:26.116Z,26.54
2022-08-17T16:53:06.808Z,27.05
2022-08-17T16:55:37.388Z,26.86
2022-08-17T16:58:06.129Z,26.43
2022-08-17T17:00:34.193Z,26.14
2022-08-17T17:03:19.215Z,25.95
2022-08-17T17:06:45.570Z,25.80
2022-08-17T17:09:28.222Z,26.12
2022-08-17T17:11:59.455Z,26.92
2022-08-17T17:14:46.794Z,27.43
2022-08-17T17:17:33.986Z,27.80
2022-08-17T17:20:15.353Z,28.02
2022-08-17T17:22:52.158Z,28.00
2022-08-17T17:25:51.313Z,27.40
2022-08-17T17:28:48.827Z,26.75
2022-08-17T17:31:23.883Z,26.26
2022-08-17T17:34:00.613Z,26.09
2022-08-17T17:36:40.909Z,26.61
2022-08-17T17:39:26.527Z,27.07
2022-08-17T17:41:57.623Z,27.33
2022-08-17T17:44:29.052Z,27.46
2022-08-17T17:46:59.596Z,27.37
2022-08-17T17:49:33.348Z,26.71
2022-08-17T17:52:24.027Z,26.00
2022-08-17T17:55:19.647Z,25.61
2022-08-17T17:58:02.803Z,26.10
2022-08-17T18:00:53.428Z,26.49
2022-08-17T18:04:08.321Z,26.72
2022-08-17T18:06:50.849Z,26.86
2022-08-17T18:09:43.600Z,26.93
2022-08-17T18:12:44.344Z,27.00
2022-08-17T18:15:51.516Z,27.04
2022-08-17T18:18:39.922Z,26.76
2022-08-17T18:21:16.746Z,25.93
2022-08-17T18:24:03.003Z,25.24
2022-08-17T18:26:42.044Z,24.96
2022-08-17T18:29:22.151Z,25.36
2022-08-17T18:32:14.491Z,25.61
2022-08-17T18:34:47.707Z,25.77
2022-08-17T18:37:45.188Z,25.87
2022-08-17T18:40:19.639Z,25.87
2022-08-17T18:43:04.451Z,25.90
2022-08-17T18:45:42.733Z,25.91
2022-08-17T18:48:59.053Z,25.95
2022-08-17T18:51:43.437Z,26.00
2022-08-17T18:54:22.519Z,26.01
2022-08-17T18:57:00.164Z,25.98
2022-08-17T18:59:57.701Z,25.94
2022-08-17T19:02:41.812Z,25.87
2022-08-17T19:05:41.881Z,25.78
2022-08-17T19:08:32.750Z,25.73
2022-08-17T19:11:32.180Z,25.65
2022-08-17T19:14:12.947Z,25.65
2022-08-17T19:16:49.405Z,25.72
2022-08-17T19:19:49.508Z,25.77
2022-08-17T19:22:30.932Z,25.74
2022-08-17T19:25:11.111Z,25.70
2022-08-17T19:27:57.189Z,25.66
2022-08-17T19:30:26.462Z,25.63
2022-08-17T19:32:56.002Z,25.64
2022-08-17T19:35:30.206Z,25.66
2022-08-17T19:38:53.147Z,25.68
2022-08-17T19:41:26.924Z,25.62
2022-08-17T19:44:23.653Z,25.54
2022-08-17T19:47:06.733Z,25.36
2022-08-17T19:50:09.516Z,25.23
2022-08-17T19:52:59.080Z,25.20
2022-08-17T19:55:56.119Z,25.11
2022-08-17T19:59:10.806Z,25.01
2022-08-17T20:02:03.176Z,24.97
2022-08-17T20:04:32.301Z,25.03
2022-08-17T20:07:06.272Z,25.06
2022-08-17T20:09:34.397Z,25.06
2022-08-17T20:12:18.756Z,25.06
2022-08-17T20:14:55.541Z,25.03
2022-08-17T20:17:40.850Z,25.02
2022-08-17T20:20:50.761Z,25.03
2022-08-17T20:23:46.169Z,25.03
2022-08-17T20:26:40.242Z,25.05
2022-08-17T20:29:17.015Z,25.03
2022-08-17T20:31:54.100Z,24.97
2022-08-17T20:34:36.682Z,24.88
2022-08-17T20:37:29.561Z,24.85
2022-08-17T20:39:57.495Z,24.81
2022-08-17T20:42:26.406Z,24.78
2022-08-17T20:45:05.864Z,24.77
2022-08-17T20:48:00.908Z,24.58
2022-08-17T20:50:53.013Z,23.69
2022-08-17T20:54:01.239Z,22.93
2022-08-17T20:56:44.090Z,22.61
2022-08-17T20:59:20.748Z,22.97
2022-08-17T21:02:17.742Z,23.21
2022-08-17T21:04:49.860Z,23.33
2022-08-17T21:07:42.609Z,23.44
2022-08-17T21:10:21.499Z,23.56
2022-08-17T21:12:59.654Z,23.66
2022-08-17T21:15:48.658Z,23.79
2022-08-17T21:18:35.380Z,23.89
2022-08-17T21:21:17.963Z,23.96
2022-08-17T21:24:14.640Z,23.92
2022-08-17T21:27:22.753Z,23.81
2022-08-17T21:30:06.657Z,23.75
2022-08-17T21:32:40.414Z,23.71
2022-08-17T21:35:28.382Z,23.68
2022-08-17T21:38:03.629Z,23.70
2022-08-17T21:40:32.975Z,23.73
2022-08-17T21:43:15.874Z,23.76
2022-08-17T21:45:44.250Z,23.75
2022-08-17T21:48:19.946Z,23.69
2022-08-17T21:51:00.906Z,23.68
2022-08-17T21:53:36.810Z,23.72
2022-08-17T21:56:06.534Z,23.77
2022-08-17T21:58:40.085Z,23.81
2022-08-17T22:01:24.464Z,23.83
2022-08-17T22:04:18.249Z,23.81
2022-08-17T22:06:56.649Z,23.71
2022-08-17T22:09:42.190Z,23.61
2022-08-17T22:12:17.817Z,23.51
2022-08-17T22:15:00.678Z,23.43
2022-08-17T22:17:29.415Z,23.36
2022-08-17T22:20:27.976Z,23.36
2022-08-17T22:23:17.757Z,23.36
2022-08-17T22:26:04.745Z,23.31
2022-08-17T22:28:49.489Z,23.30
2022-08-17T22:31:23.571Z,23.35
2022-08-17T22:34:01.949Z,23.41
2022-08-17T22:36:34.567Z,23.44
2022-08-17T22:39:26.608Z,23.42
2022-08-17T22:41:57.283Z,23.28
2022-08-17T22:44:37.906Z,23.27
2022-08-17T22:47:15.150Z,23.22
2022-08-17T22:49:57.941Z,23.15
2022-08-17T22:52:57.143Z,23.09
2022-08-17T22:55:43.914Z,23.09
2022-08-17T22:58:32.523Z,23.12
2022-08-17T23:01:33.387Z,23.17
2022-08-17T23:04:13.900Z,23.19
2022-08-17T23:06:44.602Z,23.20
2022-08-17T23:09:12.524Z,23.21
2022-08-17T23:11:49.255Z,23.23
2022-08-17T23:14:20.244Z,23.24
2022-08-17T23:16:50.510Z,22.99
2022-08-17T23:19:20.663Z,22.09
2022-08-17T23:21:49.364Z,21.25
2022-08-17T23:24:22.131Z,20.87
2022-08-17T23:26:50.419Z,21.28
2022-08-17T23:29:20.743Z,21.65
2022-08-17T23:31:51.209Z,21.84
2022-08-17T23:34:19.095Z,21.97
2022-08-17T23:36:52.362Z,22.11
2022-08-17T23:39:24.641Z,22.27
2022-08-17T23:41:59.683Z,22.41
2022-08-17T23:44:29.032Z,22.53
2022-08-17T23:46:57.337Z,22.58
2022-08-17T23:49:25.658Z,22.60
2022-08-17T23:51:54.897Z,22.63
2022-08-17T23:54:34.832Z,22.67
2022-08-17T23:57:04.440Z,22.70
2022-08-17T23:59:34.043Z,22.74
